Time;durP1;ratioP1;P1;durP2;ratioP2;P2;SDS_P1;SDS_P2;PMS_P1;PMS_P2;Temp;Humidity;BMP_temperature;BMP_pressure;BME280_temperature;BME280_humidity;BME280_pressure;Samples;Min_cycle;Max_cycle;Signal;HPM_P1;HPM_P2
2023/09/10 00:00:09;;;;;;;;;15.00;15.00;;;;;21.08;36.47;99606.06;5088413;28;8848;-73
2023/09/10 00:02:58;;;;;;;;;21.40;19.80;;;;;21.07;36.95;99613.22;5089419;28;8945;-74
2023/09/10 00:05:31;;;;;;;;;22.60;21.00;;;;;21.05;37.58;99609.81;5089777;28;8948;-73
2023/09/10 00:08:01;;;;;;;;;22.80;19.80;;;;;21.06;38.10;99609.69;5089985;28;8847;-74
2023/09/10 00:10:29;;;;;;;;;23.20;23.20;;;;;21.08;38.21;99604.25;5089529;28;9007;-74
2023/09/10 00:13:02;;;;;;;;;27.00;25.00;;;;;21.06;38.98;99611.50;5089806;28;8834;-73
2023/09/10 00:15:31;;;;;;;;;23.00;23.00;;;;;21.03;38.32;99601.00;5057167;28;8846;-75
2023/09/10 00:18:00;;;;;;;;;23.00;21.60;;;;;20.94;38.16;99615.81;5088267;28;8842;-75
2023/09/10 00:20:30;;;;;;;;;24.20;21.20;;;;;20.83;38.13;99608.44;5089348;28;8849;-73
2023/09/10 00:22:59;;;;;;;;;19.00;19.00;;;;;20.78;37.64;99607.00;5072929;28;8845;-73
2023/09/10 00:25:30;;;;;;;;;18.20;16.80;;;;;20.77;37.33;99606.16;5089991;28;8979;-73
2023/09/10 00:27:59;;;;;;;;;19.40;19.40;;;;;20.77;37.34;99605.31;5092538;28;8853;-73
2023/09/10 00:30:28;;;;;;;;;17.60;17.60;;;;;20.75;37.27;99609.91;5092080;28;8878;-75
2023/09/10 00:32:58;;;;;;;;;18.20;17.40;;;;;20.74;37.53;99610.84;5109965;28;8863;-73
2023/09/10 00:35:26;;;;;;;;;20.20;20.20;;;;;20.74;37.20;99609.00;5111107;28;8841;-71
2023/09/10 00:37:57;;;;;;;;;17.40;16.40;;;;;20.76;37.12;99608.91;5110266;28;8853;-74
2023/09/10 00:40:29;;;;;;;;;17.80;16.40;;;;;20.75;36.98;99607.22;5094373;28;8839;-73
2023/09/10 00:42:58;;;;;;;;;20.80;20.40;;;;;20.73;36.90;99612.66;5090177;28;9592;-74
2023/09/10 00:45:27;;;;;;;;;16.20;15.20;;;;;20.68;37.08;99614.75;5090930;28;8836;-73
2023/09/10 00:47:56;;;;;;;;;18.00;18.00;;;;;20.69;37.25;99616.47;5094699;28;8882;-74
2023/09/10 00:50:25;;;;;;;;;17.00;15.00;;;;;20.70;36.49;99611.97;5092177;28;8852;-73
2023/09/10 00:52:58;;;;;;;;;18.60;18.40;;;;;20.75;36.65;99609.91;5090045;28;8972;-74
2023/09/10 00:55:32;;;;;;;;;17.60;15.80;;;;;20.70;36.67;99609.31;5109726;28;8957;-73
2023/09/10 00:58:03;;;;;;;;;17.40;17.40;;;;;20.73;36.58;99609.97;5110393;28;8851;-72
2023/09/10 01:00:33;;;;;;;;;18.80;17.60;;;;;20.74;36.58;99617.03;5110231;28;8981;-75
2023/09/10 01:03:05;;;;;;;;;18.60;18.60;;;;;20.76;36.96;99608.91;5110623;28;8849;-75
2023/09/10 01:05:34;;;;;;;;;18.00;17.20;;;;;20.77;37.06;99605.31;5110823;28;8845;-73
2023/09/10 01:08:06;;;;;;;;;15.60;15.60;;;;;20.77;37.35;99603.50;5075070;28;8926;-73
2023/09/10 01:10:42;;;;;;;;;19.60;19.60;;;;;20.81;36.61;99606.81;5074562;28;8865;-76
2023/09/10 01:13:16;;;;;;;;;19.40;18.40;;;;;20.78;37.18;99607.84;5109647;28;8928;-74
2023/09/10 01:15:54;;;;;;;;;16.60;15.20;;;;;20.79;36.90;99606.06;5127090;27;8861;-73
2023/09/10 01:18:28;;;;;;;;;20.00;20.00;;;;;20.78;37.27;99609.69;5109916;28;8849;-74
2023/09/10 01:21:15;;;;;;;;;19.00;18.80;;;;;20.91;36.79;99605.28;5110035;28;8857;-75
2023/09/10 01:23:53;;;;;;;;;20.00;17.80;;;;;20.84;37.15;99609.28;5087090;28;8843;-75
2023/09/10 01:26:24;;;;;;;;;23.60;19.40;;;;;20.73;37.77;99609.97;5067633;28;8883;-74
2023/09/10 01:28:53;;;;;;;;;18.00;17.60;;;;;20.69;36.35;99608.47;5051525;28;8860;-74
2023/09/10 01:31:21;;;;;;;;;23.00;21.00;;;;;20.68;37.01;99612.06;5050741;28;8842;-74
2023/09/10 01:33:55;;;;;;;;;17.80;17.80;;;;;20.71;36.97;99611.00;5067758;28;9631;-78
2023/09/10 01:36:32;;;;;;;;;15.80;15.40;;;;;20.70;36.43;99610.16;5068206;28;8888;-73
2023/09/10 01:39:12;;;;;;;;;14.00;14.00;;;;;20.71;36.26;99613.69;5068383;28;8845;-73
2023/09/10 01:41:45;;;;;;;;;16.40;15.00;;;;;20.64;36.03;99603.38;5069144;28;8851;-72
2023/09/10 01:44:15;;;;;;;;;17.40;16.20;;;;;20.61;35.95;99605.38;5072165;28;8841;-74
2023/09/10 01:46:45;;;;;;;;;20.60;17.00;;;;;20.59;36.13;99596.63;5067772;28;8999;-76
2023/09/10 01:49:14;;;;;;;;;19.40;19.40;;;;;20.57;37.54;99594.03;5067661;28;8873;-73
2023/09/10 01:51:43;;;;;;;;;19.00;18.20;;;;;20.59;36.51;99600.13;5067148;28;8882;-74
2023/09/10 01:54:12;;;;;;;;;18.20;18.20;;;;;20.55;36.50;99603.94;5067372;28;9653;-73
2023/09/10 01:56:42;;;;;;;;;20.80;19.00;;;;;20.59;37.90;99599.28;5069894;28;8845;-75
2023/09/10 01:59:11;;;;;;;;;17.80;16.40;;;;;20.55;36.74;99601.28;5083408;28;8831;-73
2023/09/10 02:01:40;;;;;;;;;19.00;19.00;;;;;20.53;38.69;99599.66;5098860;28;8847;-75
2023/09/10 02:04:09;;;;;;;;;24.00;21.20;;;;;20.51;38.60;99602.44;5125192;27;8859;-74
2023/09/10 02:06:38;;;;;;;;;17.40;17.40;;;;;20.51;38.28;99604.25;5107983;28;8893;-73
2023/09/10 02:09:07;;;;;;;;;19.60;17.80;;;;;20.48;37.41;99606.16;5091623;28;8875;-73
2023/09/10 02:11:36;;;;;;;;;16.20;16.20;;;;;20.45;37.21;99597.47;5090681;28;8860;-73
2023/09/10 02:14:06;;;;;;;;;18.20;18.20;;;;;20.45;37.29;99597.47;5107660;27;8849;-73
2023/09/10 02:16:35;;;;;;;;;19.20;18.00;;;;;20.43;37.22;99602.06;5110743;27;9020;-74
2023/09/10 02:19:06;;;;;;;;;17.80;17.20;;;;;20.39;36.95;99605.88;5094173;27;8849;-73
2023/09/10 02:21:36;;;;;;;;;22.80;20.20;;;;;20.39;36.81;99609.38;5106202;28;8827;-74
2023/09/10 02:24:05;;;;;;;;;17.00;16.60;;;;;20.33;36.49;99604.44;5107101;28;8848;-75
2023/09/10 02:26:34;;;;;;;;;18.60;17.80;;;;;20.31;37.03;99605.44;5090135;28;8898;-74
2023/09/10 02:29:03;;;;;;;;;22.20;21.40;;;;;20.27;37.12;99607.44;5107695;28;8982;-73
2023/09/10 02:31:33;;;;;;;;;18.80;18.80;;;;;20.20;37.35;99612.28;5094625;28;8839;-75
2023/09/10 02:34:03;;;;;;;;;16.00;15.60;;;;;20.23;36.99;99612.09;5122156;27;8828;-74
2023/09/10 02:36:32;;;;;;;;;14.40;13.40;;;;;20.26;36.96;99606.59;5109167;28;8847;-73
2023/09/10 02:39:01;;;;;;;;;18.40;18.20;;;;;20.31;36.12;99608.13;5093617;28;8986;-70
2023/09/10 02:41:30;;;;;;;;;17.40;17.00;;;;;20.32;36.54;99609.84;5090567;28;9025;-73
2023/09/10 02:43:58;;;;;;;;;13.40;12.20;;;;;20.34;36.84;99613.28;5088442;28;8890;-73
2023/09/10 02:46:27;;;;;;;;;15.40;15.40;;;;;20.28;36.19;99606.50;5088537;27;8855;-75
2023/09/10 02:48:58;;;;;;;;;17.80;16.00;;;;;20.31;36.70;99616.97;5105136;28;8933;-73
2023/09/10 02:51:27;;;;;;;;;15.00;14.20;;;;;20.32;36.12;99617.88;5105306;28;8836;-72
2023/09/10 02:53:56;;;;;;;;;17.20;16.00;;;;;20.29;37.04;99608.22;5036746;28;8924;-73
2023/09/10 02:56:25;;;;;;;;;17.00;16.00;;;;;20.27;37.39;99608.31;5105030;28;8894;-73
2023/09/10 02:58:54;;;;;;;;;19.20;17.60;;;;;20.27;37.01;99605.66;5104537;28;8916;-73
2023/09/10 03:01:22;;;;;;;;;15.20;15.20;;;;;20.27;36.66;99602.09;5122225;27;8864;-74
2023/09/10 03:03:51;;;;;;;;;17.40;16.00;;;;;20.26;36.49;99613.75;5095269;28;8882;-74
2023/09/10 03:06:22;;;;;;;;;21.00;19.00;;;;;20.23;37.20;99606.78;5089024;28;8905;-73
2023/09/10 03:08:51;;;;;;;;;16.20;15.60;;;;;20.25;37.17;99614.69;5087691;28;8867;-73
2023/09/10 03:11:20;;;;;;;;;20.80;19.80;;;;;20.23;37.43;99617.44;5104399;28;8855;-73
2023/09/10 03:13:50;;;;;;;;;18.00;18.00;;;;;20.21;37.57;99611.31;5104436;28;8941;-74
2023/09/10 03:16:18;;;;;;;;;15.20;15.20;;;;;20.19;37.15;99613.22;5087217;28;8867;-73
2023/09/10 03:18:47;;;;;;;;;17.00;15.00;;;;;20.17;36.27;99612.44;5104663;28;9723;-74
2023/09/10 03:21:16;;;;;;;;;18.20;16.40;;;;;20.14;36.23;99611.78;5108202;27;9659;-76
2023/09/10 03:23:47;;;;;;;;;19.20;16.00;;;;;20.13;35.90;99612.75;5087525;28;8835;-75
2023/09/10 03:26:16;;;;;;;;;21.60;19.80;;;;;20.04;36.05;99614.13;5086905;28;8848;-75
2023/09/10 03:28:45;;;;;;;;;14.20;13.60;;;;;20.05;36.37;99613.19;5087502;28;8848;-76
2023/09/10 03:31:14;;;;;;;;;19.40;16.60;;;;;20.06;36.69;99609.56;5075300;28;8936;-73
2023/09/10 03:33:43;;;;;;;;;13.20;12.20;;;;;20.07;36.61;99612.16;5103419;28;8833;-73
2023/09/10 03:36:12;;;;;;;;;18.60;16.80;;;;;20.06;36.62;99607.75;5076056;28;8864;-75
2023/09/10 03:38:41;;;;;;;;;20.40;18.40;;;;;19.98;36.64;99610.03;5090126;28;8851;-73
2023/09/10 03:41:12;;;;;;;;;17.60;15.40;;;;;19.92;35.93;99612.22;5036933;28;8967;-73
2023/09/10 03:43:41;;;;;;;;;14.80;12.00;;;;;19.81;35.91;99608.34;5121035;27;8867;-72
2023/09/10 03:46:10;;;;;;;;;17.20;17.20;;;;;19.75;36.46;99608.72;5069924;28;9014;-74
2023/09/10 03:48:39;;;;;;;;;18.20;18.20;;;;;19.76;37.47;99609.56;5104149;28;9586;-72
2023/09/10 03:51:08;;;;;;;;;19.20;16.40;;;;;19.64;36.45;99609.31;5104130;28;8867;-76
2023/09/10 03:53:37;;;;;;;;;13.60;13.60;;;;;19.70;36.92;99614.28;5086038;28;8860;-73
2023/09/10 03:56:05;;;;;;;;;19.20;17.80;;;;;19.71;36.90;99612.50;5103813;28;8994;-73
2023/09/10 03:58:36;;;;;;;;;16.60;16.60;;;;;19.74;37.20;99614.97;5104030;28;8867;-73
2023/09/10 04:01:05;;;;;;;;;20.40;19.60;;;;;19.51;37.86;99616.28;5103681;28;8844;-73
2023/09/10 04:03:35;;;;;;;;;20.00;18.00;;;;;19.45;38.02;99627.31;5103606;28;8843;-73
2023/09/10 04:06:04;;;;;;;;;20.80;20.40;;;;;19.25;39.08;99623.06;5103553;28;8856;-73
2023/09/10 04:08:33;;;;;;;;;17.60;16.60;;;;;19.24;39.06;99627.56;5086705;28;8854;-74
2023/09/10 04:11:01;;;;;;;;;18.20;16.40;;;;;19.35;37.96;99626.09;5086280;27;8936;-73
2023/09/10 04:13:30;;;;;;;;;17.40;16.60;;;;;19.30;38.25;99629.03;5086803;28;8884;-73
2023/09/10 04:16:00;;;;;;;;;17.00;15.20;;;;;19.26;37.78;99632.81;5103994;28;9780;-73
2023/09/10 04:18:29;;;;;;;;;22.40;20.60;;;;;19.31;38.32;99630.75;5086422;28;8855;-73
2023/09/10 04:20:58;;;;;;;;;19.80;19.60;;;;;19.37;38.77;99633.06;5103388;28;8839;-74
2023/09/10 04:23:27;;;;;;;;;19.60;19.60;;;;;19.30;39.12;99637.03;5086684;28;9619;-73
2023/09/10 04:25:56;;;;;;;;;19.20;19.20;;;;;19.27;39.19;99632.72;5104588;28;8863;-75
2023/09/10 04:28:25;;;;;;;;;24.80;21.60;;;;;19.32;39.75;99629.78;5105048;28;8936;-74
2023/09/10 04:30:54;;;;;;;;;32.50;30.75;;;;;19.39;39.54;99633.00;5089085;28;8855;-73
2023/09/10 04:33:24;;;;;;;;;46.75;40.25;;;;;19.52;39.88;99647.38;5103783;28;8843;-74
2023/09/10 04:35:57;;;;;;;;;18.80;18.40;;;;;19.55;40.24;99649.00;5086656;28;8847;-74
2023/09/10 04:38:26;;;;;;;;;21.20;20.20;;;;;19.37;40.69;99646.41;5098472;28;8933;-73
2023/09/10 04:40:56;;;;;;;;;20.00;19.80;;;;;19.30;41.03;99648.53;5107030;28;8999;-72
2023/09/10 04:43:25;;;;;;;;;17.20;16.20;;;;;19.38;40.92;99640.09;5069062;28;8859;-75
2023/09/10 04:45:54;;;;;;;;;20.80;19.40;;;;;19.44;40.83;99654.88;5098458;27;8860;-74
2023/09/10 04:48:24;;;;;;;;;20.00;19.80;;;;;19.54;40.59;99652.59;5097613;28;8851;-73
2023/09/10 04:50:53;;;;;;;;;21.60;21.60;;;;;19.62;40.22;99655.72;5105078;28;8856;-73
2023/09/10 04:53:22;;;;;;;;;21.20;21.20;;;;;19.68;40.26;99664.19;5091220;28;8860;-74
2023/09/10 04:55:55;;;;;;;;;25.40;20.80;;;;;19.80;40.60;99661.78;5092822;28;9614;-75
2023/09/10 04:58:26;;;;;;;;;19.00;18.40;;;;;19.80;40.65;99668.00;5110657;28;8910;-74
2023/09/10 05:00:56;;;;;;;;;27.00;22.00;;;;;19.88;40.75;99662.22;5059174;28;8891;-71
2023/09/10 05:03:28;;;;;;;;;21.80;21.80;;;;;19.92;40.68;99661.09;5109774;28;8861;-72
2023/09/10 05:05:58;;;;;;;;;21.20;20.20;;;;;19.93;40.75;99662.78;5092733;28;9619;-74
2023/09/10 05:08:27;;;;;;;;;22.80;20.00;;;;;19.98;40.93;99667.88;5090907;27;8854;-73
2023/09/10 05:10:56;;;;;;;;;23.60;20.20;;;;;20.04;40.39;99670.16;5108190;28;8862;-73
2023/09/10 05:13:25;;;;;;;;;22.20;21.40;;;;;20.07;40.77;99673.53;5109795;28;8853;-74
2023/09/10 05:15:54;;;;;;;;;26.60;25.60;;;;;20.17;40.57;99687.19;5111253;27;8910;-73
2023/09/10 05:18:25;;;;;;;;;24.00;23.40;;;;;20.23;40.48;99689.50;5109674;28;8853;-74
2023/09/10 05:20:56;;;;;;;;;22.60;22.40;;;;;20.27;40.58;99685.75;5128899;27;8861;-72
2023/09/10 05:23:27;;;;;;;;;23.20;21.20;;;;;20.33;40.14;99684.53;5111721;28;8853;-73
2023/09/10 05:25:57;;;;;;;;;45.75;37.75;;;;;20.39;38.46;99694.81;5106888;28;8860;-72
2023/09/10 05:28:26;;;;;;;;;37.75;33.25;;;;;20.48;38.96;99702.28;5104169;28;8841;-73
2023/09/10 05:30:54;;;;;;;;;27.50;27.25;;;;;20.61;39.01;99698.88;5112416;27;8888;-73
2023/09/10 05:33:24;;;;;;;;;27.40;26.20;;;;;20.71;38.91;99699.16;5103120;27;8997;-75
2023/09/10 05:35:58;;;;;;;;;20.00;20.00;;;;;20.91;38.46;99704.16;5115468;27;8880;-74
2023/09/10 05:38:30;;;;;;;;;23.60;23.20;;;;;20.79;38.97;99695.09;5111948;27;8877;-77
2023/09/10 05:41:22;;;;;;;;;25.80;23.20;;;;;20.88;38.08;99699.00;5065197;28;8840;-73
2023/09/10 05:44:11;;;;;;;;;26.40;24.60;;;;;21.00;38.34;99695.59;5086224;28;8833;-74
2023/09/10 05:46:39;;;;;;;;;25.60;24.60;;;;;21.16;37.72;99699.97;5053466;28;8861;-74
2023/09/10 05:49:09;;;;;;;;;24.40;23.60;;;;;21.25;37.76;99699.41;5070559;28;8838;-75
2023/09/10 05:52:00;;;;;;;;;21.40;21.40;;;;;21.36;37.92;99701.41;5074218;28;8958;-73
2023/09/10 05:54:29;;;;;;;;;25.60;24.00;;;;;21.36;37.83;99702.25;5073242;28;8874;-73
2023/09/10 05:56:58;;;;;;;;;23.60;22.40;;;;;21.50;38.02;99696.00;5060525;28;8872;-73
2023/09/10 05:59:27;;;;;;;;;26.80;26.20;;;;;21.38;37.97;99708.38;5048568;28;8889;-74
2023/09/10 06:01:56;;;;;;;;;28.60;26.20;;;;;21.40;38.12;99706.44;5066759;28;8935;-75
2023/09/10 06:04:27;;;;;;;;;24.75;22.75;;;;;21.47;38.10;99714.09;5066735;28;8860;-71
2023/09/10 06:06:57;;;;;;;;;23.40;22.20;;;;;21.60;37.93;99707.88;5071155;28;8853;-71
2023/09/10 06:09:27;;;;;;;;;29.00;25.40;;;;;21.75;37.91;99705.16;5074256;28;8856;-74
2023/09/10 06:11:57;;;;;;;;;23.00;23.00;;;;;21.81;37.42;99708.31;5056278;28;8833;-72
2023/09/10 06:14:27;;;;;;;;;29.25;29.25;;;;;21.99;37.59;99716.97;5098013;28;9537;-72
2023/09/10 06:16:56;;;;;;;;;26.75;25.00;;;;;22.11;37.19;99711.72;5077053;28;8874;-74
2023/09/10 06:19:25;;;;;;;;;26.20;25.80;;;;;22.24;37.38;99715.31;5077817;28;8929;-72
2023/09/10 06:21:54;;;;;;;;;29.75;27.50;;;;;22.40;37.31;99715.16;5053326;28;8881;-72
2023/09/10 06:24:23;;;;;;;;;25.40;23.20;;;;;22.52;36.82;99721.50;5026276;28;9641;-73
2023/09/10 06:26:53;;;;;;;;;25.60;24.40;;;;;22.66;36.79;99720.59;5026017;28;8960;-73
2023/09/10 06:29:25;;;;;;;;;29.00;25.40;;;;;22.66;36.73;99720.59;5023942;28;8848;-74
2023/09/10 06:31:54;;;;;;;;;28.80;26.40;;;;;22.77;36.77;99721.53;5073359;28;8871;-74
2023/09/10 06:34:23;;;;;;;;;27.00;25.80;;;;;22.81;36.78;99716.84;5058516;28;8858;-72
2023/09/10 06:36:52;;;;;;;;;81.00;77.00;;;;;22.79;36.96;99724.97;5041227;28;8948;-74
2023/09/10 06:39:21;;;;;;;;;36.25;32.50;;;;;22.70;35.80;99724.75;4984106;28;10829;-73
2023/09/10 06:41:55;;;;;;;;;27.00;24.40;;;;;22.54;35.99;99730.28;5058468;28;8893;-72
2023/09/10 06:44:27;;;;;;;;;20.80;20.60;;;;;22.59;36.12;99729.03;5030331;28;8854;-71
2023/09/10 06:46:56;;;;;;;;;28.40;25.60;;;;;22.88;35.26;99730.66;5063734;28;8863;-74
2023/09/10 06:49:25;;;;;;;;;24.40;22.40;;;;;23.08;35.60;99730.16;5052571;28;9588;-74
2023/09/10 06:51:53;;;;;;;;;23.00;21.20;;;;;23.12;34.81;99728.97;5043996;28;8835;-69
2023/09/10 06:54:23;;;;;;;;;22.00;20.60;;;;;23.33;35.08;99721.22;5088449;28;8901;-69
2023/09/10 06:56:51;;;;;;;;;18.40;17.40;;;;;23.49;34.90;99722.81;5088348;28;8827;-67
2023/09/10 06:59:22;;;;;;;;;19.60;19.00;;;;;23.54;34.55;99726.03;5088181;28;8856;-68
2023/09/10 07:01:51;;;;;;;;;21.80;20.20;;;;;23.46;34.13;99718.50;5089703;27;8889;-68
2023/09/10 07:04:21;;;;;;;;;18.60;18.00;;;;;23.67;33.93;99734.06;5086049;28;8892;-70
2023/09/10 07:06:51;;;;;;;;;19.00;18.40;;;;;23.78;33.87;99732.28;5064075;28;8843;-69
2023/09/10 07:09:22;;;;;;;;;20.60;19.20;;;;;23.92;33.50;99725.03;5088160;28;8961;-69
2023/09/10 07:11:51;;;;;;;;;40.00;32.50;;;;;24.02;33.40;99726.09;5088511;28;8987;-68
2023/09/10 07:14:22;;;;;;;;;21.00;20.00;;;;;24.14;33.00;99725.19;5088079;28;8857;-69
2023/09/10 07:16:51;;;;;;;;;31.25;30.50;;;;;24.19;32.94;99730.22;5097446;28;8833;-67
2023/09/10 07:19:20;;;;;;;;;22.20;21.40;;;;;24.14;32.74;99727.03;5087673;27;8843;-69
2023/09/10 07:21:49;;;;;;;;;21.00;19.00;;;;;24.18;33.22;99733.03;5092221;28;8948;-69
2023/09/10 07:24:18;;;;;;;;;17.00;17.00;;;;;24.34;33.00;99731.75;5102832;28;8845;-71
2023/09/10 07:26:47;;;;;;;;;18.00;18.00;;;;;24.50;32.59;99730.59;5098546;28;8859;-69
2023/09/10 07:29:16;;;;;;;;;20.00;19.20;;;;;24.61;32.78;99737.84;5096915;28;8878;-72
2023/09/10 07:31:46;;;;;;;;;15.20;15.20;;;;;24.79;31.99;99736.41;5079972;28;8860;-72
2023/09/10 07:34:15;;;;;;;;;17.20;16.20;;;;;24.70;32.02;99734.44;5120259;27;8906;-74
2023/09/10 07:36:45;;;;;;;;;18.80;18.00;;;;;24.74;31.99;99738.63;5109218;27;8858;-74
2023/09/10 07:39:15;;;;;;;;;16.40;15.00;;;;;24.79;32.23;99735.56;5114747;27;8831;-73
2023/09/10 07:41:44;;;;;;;;;14.40;13.60;;;;;24.78;32.29;99734.72;5103304;27;8866;-73
2023/09/10 07:44:13;;;;;;;;;18.20;18.20;;;;;24.82;32.55;99732.66;5098328;28;8853;-73
2023/09/10 07:46:41;;;;;;;;;44.50;36.50;;;;;24.86;32.28;99728.75;5090889;28;8843;-73
2023/09/10 07:49:12;;;;;;;;;17.20;17.20;;;;;24.96;32.52;99731.56;5098372;28;8933;-74
2023/09/10 07:51:40;;;;;;;;;18.20;17.20;;;;;24.92;32.54;99734.50;5095235;28;9087;-73
2023/09/10 07:54:09;;;;;;;;;15.00;15.00;;;;;24.98;32.17;99740.38;5106969;28;8867;-76
2023/09/10 07:56:38;;;;;;;;;12.60;12.60;;;;;24.98;32.13;99735.88;5098623;28;8851;-73
2023/09/10 07:59:10;;;;;;;;;21.60;19.60;;;;;24.95;32.60;99730.72;5087554;28;8848;-75
2023/09/10 08:01:39;;;;;;;;;18.60;18.60;;;;;24.99;32.53;99725.97;5102924;28;8898;-75
2023/09/10 08:04:08;;;;;;;;;26.25;26.25;;;;;25.09;32.52;99727.78;5068849;28;8851;-75
2023/09/10 08:06:38;;;;;;;;;18.60;17.80;;;;;25.16;32.36;99730.84;5108240;28;8845;-74
2023/09/10 08:09:09;;;;;;;;;21.20;18.80;;;;;25.22;31.76;99730.34;5116635;28;8837;-76
2023/09/10 08:11:38;;;;;;;;;18.20;17.80;;;;;25.28;32.23;99729.88;5106614;28;8851;-79
2023/09/10 08:14:07;;;;;;;;;17.20;17.20;;;;;25.26;31.83;99726.44;5104055;28;8936;-78
2023/09/10 08:16:36;;;;;;;;;18.60;17.80;;;;;25.27;31.79;99730.00;5089093;28;8907;-78
2023/09/10 08:19:05;;;;;;;;;15.00;15.00;;;;;25.41;31.65;99729.78;5090624;28;8843;-78
2023/09/10 08:21:34;;;;;;;;;18.00;18.00;;;;;25.50;31.80;99720.09;5092296;27;8847;-82
2023/09/10 08:24:05;;;;;;;;;19.00;18.40;;;;;25.51;31.16;99727.19;5091443;28;8840;-81
2023/09/10 08:26:34;;;;;;;;;16.40;16.00;;;;;25.56;31.37;99725.00;5092135;28;8886;-77
2023/09/10 08:29:03;;;;;;;;;18.00;18.00;;;;;25.62;31.40;99731.72;5092316;28;8839;-80
2023/09/10 08:31:33;;;;;;;;;17.60;17.40;;;;;25.74;30.91;99717.25;5092416;28;9763;-82
2023/09/10 08:34:02;;;;;;;;;20.20;19.60;;;;;25.89;30.98;99723.22;5091983;28;8844;-79
2023/09/10 08:36:30;;;;;;;;;13.80;13.80;;;;;26.01;30.77;99719.53;5092228;28;8972;-78
2023/09/10 08:38:59;;;;;;;;;17.40;16.80;;;;;26.11;30.72;99719.59;5090966;28;10115;-78
2023/09/10 08:41:38;;;;;;;;;14.60;14.00;;;;;26.21;29.90;99722.38;5089070;28;8851;-79
2023/09/10 08:44:10;;;;;;;;;22.20;20.00;;;;;26.28;29.27;99720.88;5084194;28;8836;-80
2023/09/10 08:46:41;;;;;;;;;17.00;15.60;;;;;26.26;29.29;99728.25;5109922;28;8869;-76
2023/09/10 08:49:14;;;;;;;;;13.20;13.20;;;;;26.36;28.71;99717.53;5093023;28;8849;-80
2023/09/10 08:51:44;;;;;;;;;13.60;13.40;;;;;26.40;28.80;99725.25;5109945;28;8885;-78
2023/09/10 08:54:15;;;;;;;;;16.20;15.20;;;;;26.38;28.40;99731.75;5059107;28;8880;-79
2023/09/10 08:56:45;;;;;;;;;13.40;13.40;;;;;26.37;28.30;99735.44;5108379;28;8872;-80
2023/09/10 08:59:15;;;;;;;;;14.00;14.00;;;;;26.42;28.07;99728.69;5110166;28;8861;-79
2023/09/10 09:01:45;;;;;;;;;11.40;11.40;;;;;26.37;28.06;99719.25;5115602;28;8864;-77
2023/09/10 09:04:16;;;;;;;;;13.80;13.80;;;;;26.45;28.03;99723.00;5102236;28;8848;-76
2023/09/10 09:06:50;;;;;;;;;14.00;12.40;;;;;26.49;28.45;99720.94;5028268;28;8945;-79
2023/09/10 09:09:21;;;;;;;;;16.00;14.40;;;;;26.46;27.62;99713.97;5089404;28;8851;-81
2023/09/10 09:11:54;;;;;;;;;18.40;17.60;;;;;26.48;27.15;99709.31;5056256;28;8847;-79
2023/09/10 09:14:25;;;;;;;;;10.40;10.20;;;;;26.46;26.84;99707.72;5076921;28;8899;-79
2023/09/10 09:16:55;;;;;;;;;12.20;11.20;;;;;26.52;27.11;99700.97;5110321;28;8987;-79
2023/09/10 09:19:28;;;;;;;;;13.20;12.60;;;;;26.56;26.97;99713.19;5111486;28;8887;-79
2023/09/10 09:22:00;;;;;;;;;14.80;14.80;;;;;26.63;26.97;99703.59;5100170;28;9040;-78
2023/09/10 09:24:30;;;;;;;;;13.40;12.00;;;;;26.65;27.02;99707.00;5089573;28;8847;-79
2023/09/10 09:27:01;;;;;;;;;10.40;10.40;;;;;26.73;26.60;99704.50;5090889;28;8866;-76
2023/09/10 09:29:31;;;;;;;;;12.80;11.80;;;;;26.71;26.56;99701.09;5091158;28;8839;-78
2023/09/10 09:32:00;;;;;;;;;11.40;11.00;;;;;26.79;26.19;99703.97;5090337;28;9628;-79
2023/09/10 09:34:29;;;;;;;;;9.80;9.60;;;;;26.81;26.18;99701.13;5110820;28;8841;-79
2023/09/10 09:36:58;;;;;;;;;12.20;12.20;;;;;26.85;26.43;99702.56;5111702;28;8844;-77
2023/09/10 09:39:27;;;;;;;;;12.20;11.80;;;;;26.86;25.50;99702.44;5112236;28;9622;-77
2023/09/10 09:41:55;;;;;;;;;9.40;8.20;;;;;26.79;24.44;99693.16;5072388;28;8859;-79
2023/09/10 09:44:27;;;;;;;;;10.00;10.00;;;;;26.73;24.10;99692.88;5088110;28;8846;-80
2023/09/10 09:46:58;;;;;;;;;8.00;8.00;;;;;26.77;24.10;99697.84;5088066;28;8868;-79
2023/09/10 09:49:27;;;;;;;;;8.00;7.80;;;;;26.87;24.67;99700.59;5090179;28;8876;-79
2023/09/10 09:51:56;;;;;;;;;9.60;9.20;;;;;27.01;24.14;99694.84;5088605;28;8920;-79
2023/09/10 09:54:25;;;;;;;;;9.40;9.40;;;;;27.04;24.66;99697.31;5088720;28;9576;-82
2023/09/10 09:56:54;;;;;;;;;10.60;9.20;;;;;27.12;24.88;99696.66;5092261;28;8846;-80
2023/09/10 09:59:23;;;;;;;;;10.20;10.20;;;;;27.10;24.63;99700.44;5085268;28;8853;-76
2023/09/10 10:01:53;;;;;;;;;10.40;8.80;;;;;27.21;24.28;99698.53;5096987;28;8919;-80
2023/09/10 10:04:24;;;;;;;;;8.60;8.60;;;;;27.33;24.30;99687.63;5071587;28;8842;-80
2023/09/10 10:06:52;;;;;;;;;8.40;8.00;;;;;27.41;24.12;99694.03;5068833;28;8848;-79
2023/09/10 10:09:21;;;;;;;;;8.80;8.00;;;;;27.48;23.91;99686.25;5068050;28;8884;-78
2023/09/10 10:11:51;;;;;;;;;11.80;11.60;;;;;27.55;24.00;99691.94;5067937;28;8863;-78
2023/09/10 10:14:21;;;;;;;;;15.80;15.80;;;;;27.62;24.08;99688.56;5035530;28;8851;-77
2023/09/10 10:16:53;;;;;;;;;9.40;9.40;;;;;27.67;23.79;99688.19;5090913;28;8871;-79
2023/09/10 10:19:23;;;;;;;;;9.20;7.80;;;;;27.68;23.86;99680.91;5091677;28;8859;-79
2023/09/10 10:21:53;;;;;;;;;11.40;9.40;;;;;27.75;24.20;99674.81;5088950;27;8818;-78
2023/09/10 10:24:23;;;;;;;;;9.40;9.40;;;;;27.80;23.66;99677.13;5104950;28;8823;-78
2023/09/10 10:26:52;;;;;;;;;11.40;10.20;;;;;27.85;24.30;99677.53;5088066;28;8867;-78
2023/09/10 10:29:22;;;;;;;;;10.80;10.00;;;;;27.85;24.20;99674.81;5070254;28;8849;-77
2023/09/10 10:32:05;;;;;;;;;26.75;26.00;;;;;27.93;24.54;99669.59;5095062;28;8866;-77
2023/09/10 10:34:38;;;;;;;;;14.80;14.80;;;;;28.05;24.46;99675.69;5070457;28;8835;-79
2023/09/10 10:37:16;;;;;;;;;12.20;12.20;;;;;28.13;24.02;99680.41;5102779;28;8836;-78
2023/09/10 10:39:54;;;;;;;;;9.20;9.20;;;;;28.13;23.72;99664.19;5089258;28;8859;-77
2023/09/10 10:42:36;;;;;;;;;10.40;10.40;;;;;28.16;23.25;99662.06;5086694;28;8832;-78
2023/09/10 10:45:07;;;;;;;;;8.20;8.20;;;;;27.98;23.67;99670.00;5097552;28;8965;-78
2023/09/10 10:47:39;;;;;;;;;13.20;13.20;;;;;28.14;23.53;99660.47;5091941;28;8891;-71
2023/09/10 10:50:10;;;;;;;;;11.00;10.20;;;;;28.19;23.61;99659.06;5088311;28;8860;-73
2023/09/10 10:52:44;;;;;;;;;10.00;10.00;;;;;28.16;23.56;99653.13;5070048;28;8835;-72
2023/09/10 10:55:15;;;;;;;;;12.80;11.20;;;;;28.18;23.53;99657.38;5088673;28;8840;-70
2023/09/10 10:57:44;;;;;;;;;8.40;7.60;;;;;28.21;23.26;99656.22;5097927;28;8857;-71
2023/09/10 11:00:15;;;;;;;;;12.60;8.40;;;;;28.37;23.58;99652.94;5092080;28;8860;-71
2023/09/10 11:02:46;;;;;;;;;10.00;10.00;;;;;28.59;23.10;99649.03;5090892;28;8890;-66
2023/09/10 11:05:15;;;;;;;;;9.00;9.00;;;;;28.67;22.98;99649.22;5094563;27;8857;-67
2023/09/10 11:07:45;;;;;;;;;11.80;11.20;;;;;28.82;22.84;99646.88;5038606;28;8906;-67
2023/09/10 11:10:39;;;;;;;;;10.20;9.00;;;;;29.05;22.13;99641.94;5105981;28;9600;-67
2023/09/10 11:13:09;;;;;;;;;10.60;9.60;;;;;28.94;22.08;99634.84;5102167;28;8852;-64
2023/09/10 11:16:16;;;;;;;;;9.40;8.00;;;;;29.18;21.92;99637.06;5094601;27;9604;-67
2023/09/10 11:18:46;;;;;;;;;26.50;26.25;;;;;28.99;21.82;99635.25;5087149;28;9704;-67
2023/09/10 11:21:17;;;;;;;;;18.40;17.80;;;;;29.02;22.92;99635.97;5113189;27;8849;-67
2023/09/10 11:24:23;;;;;;;;;20.00;20.00;;;;;29.31;22.24;99631.28;5103504;27;8833;-67
2023/09/10 11:27:22;;;;;;;;;11.00;9.20;;;;;29.53;21.34;99623.72;5108369;28;8837;-68
2023/09/10 11:30:06;;;;;;;;;10.40;10.00;;;;;29.78;21.44;99626.72;5086718;28;8867;-68
2023/09/10 11:32:36;;;;;;;;;10.00;8.20;;;;;29.80;22.10;99622.81;5096158;28;8837;-67
2023/09/10 11:35:25;;;;;;;;;9.00;9.00;;;;;30.10;21.86;99620.72;5099436;28;8883;-66
2023/09/10 11:37:56;;;;;;;;;12.00;11.80;;;;;30.10;21.42;99621.56;5048171;28;8933;-67
2023/09/10 11:40:26;;;;;;;;;11.00;10.80;;;;;30.21;21.91;99616.94;5045701;28;8985;-68
2023/09/10 11:42:56;;;;;;;;;6.60;6.60;;;;;30.49;21.17;99614.94;5047184;28;8962;-68